Time,TemperatureF,DewpointF,PressureIn,WindDirection,WindDirectionDegrees,WindSpeedMPH,WindSpeedGustMPH,Humidity,HourlyPrecipIn,Conditions,Clouds,dailyrainin,SoftwareType,DateUTC
2013-04-02 00:03:00,39.2,28.8,30.17,ENE,57,3.0,-999.0,66,0.00,,,0.00,WeatherSnoop3.0,2013-04-02 05:03:00,
2013-04-02 00:08:00,39.2,28.1,30.16,ENE,77,4.0,-999.0,64,0.00,,,0.00,WeatherSnoop3.0,2013-04-02 05:08:00,
2013-04-02 00:13:00,39.2,28.8,30.16,NE,51,2.0,-999.0,66,0.00,,,0.00,WeatherSnoop3.0,2013-04-02 05:13:00,
2013-04-02 00:18:00,39.2,28.4,30.16,ENE,68,3.0,-999.0,65,0.00,,,0.00,WeatherSnoop3.0,2013-04-02 05:18:00,
2013-04-02 00:23:00,39.2,28.1,30.16,NE,51,5.0,-999.0,64,0.00,,,0.00,WeatherSnoop3.0,2013-04-02 05:23:00,
2013-04-02 00:28:00,39.1,28.3,30.17,East,98,1.0,-999.0,65,0.00,,,0.00,WeatherSnoop3.0,2013-04-02 05:28:00,
2013-04-02 00:33:00,39.2,27.7,30.16,ENE,65,4.0,-999.0,63,0.00,,,0.00,WeatherSnoop3.0,2013-04-02 05:33:00,
2013-04-02 00:38:00,39.2,27.7,30.17,ENE,72,3.0,-999.0,63,0.00,,,0.00,WeatherSnoop3.0,2013-04-02 05:38:00,
2013-04-02 00:43:00,39.1,28.3,30.19,ENE,68,1.0,-999.0,65,0.00,,,0.00,WeatherSnoop3.0,2013-04-02 05:43:00,
2013-04-02 00:48:00,38.8,28.4,30.18,East,81,2.0,-999.0,66,0.00,,,0.01,WeatherSnoop3.0,2013-04-02 05:48:00,
2013-04-02 00:53:00,38.4,29.8,30.18,ENE,59,3.0,-999.0,71,0.00,,,0.01,WeatherSnoop3.0,2013-04-02 05:53:00,
2013-04-02 00:58:00,38.3,29.7,30.18,ENE,59,2.0,-999.0,71,0.00,,,0.01,WeatherSnoop3.0,2013-04-02 05:58:00,
2013-04-02 01:03:00,38.2,30.0,30.17,ENE,66,3.0,-999.0,72,0.00,,,0.01,WeatherSnoop3.0,2013-04-02 06:03:00,
2013-04-02 01:08:00,38.2,29.6,30.17,NE,39,3.0,-999.0,71,0.00,,,0.01,WeatherSnoop3.0,2013-04-02 06:08:00,
2013-04-02 01:13:00,38.3,28.7,30.17,NE,51,7.0,-999.0,68,0.00,,,0.01,WeatherSnoop3.0,2013-04-02 06:13:00,
2013-04-02 01:18:00,38.3,28.3,30.18,ENE,64,4.0,-999.0,67,0.00,,,0.01,WeatherSnoop3.0,2013-04-02 06:18:00,
2013-04-02 01:23:00,38.3,29.4,30.19,ENE,63,4.0,-999.0,70,0.00,,,0.01,WeatherSnoop3.0,2013-04-02 06:23:00,
2013-04-02 01:28:00,38.2,28.9,30.18,ENE,57,2.0,-999.0,69,0.00,,,0.01,WeatherSnoop3.0,2013-04-02 06:28:00,
2013-04-02 01:33:00,38.0,29.1,30.18,East,79,1.0,-999.0,70,0.00,,,0.01,WeatherSnoop3.0,2013-04-02 06:33:00,
2013-04-02 01:38:00,37.8,29.9,30.18,ENE,63,1.0,-999.0,73,0.00,,,0.01,WeatherSnoop3.0,2013-04-02 06:38:00,
2013-04-02 01:43:00,37.5,30.6,30.18,NE,47,2.0,-999.0,76,0.00,,,0.01,WeatherSnoop3.0,2013-04-02 06:43:00,
2013-04-02 01:48:00,37.5,29.3,30.18,ENE,65,4.0,-999.0,72,0.00,,,0.01,WeatherSnoop3.0,2013-04-02 06:48:00,
2013-04-02 01:53:00,37.6,29.4,30.18,ENE,64,2.0,-999.0,72,0.00,,,0.01,WeatherSnoop3.0,2013-04-02 06:53:00,
2013-04-02 01:58:00,37.5,30.0,30.19,NE,44,2.0,-999.0,74,0.00,,,0.01,WeatherSnoop3.0,2013-04-02 06:58:00,
2013-04-02 02:03:00,37.4,30.2,30.19,NE,46,2.0,-999.0,75,0.00,,,0.01,WeatherSnoop3.0,2013-04-02 07:03:00,
2013-04-02 02:08:00,37.4,30.2,30.20,NE,44,1.0,-999.0,75,0.00,,,0.01,WeatherSnoop3.0,2013-04-02 07:08:00,
2013-04-02 02:13:00,37.2,31.0,30.18,NE,41,2.0,-999.0,78,0.00,,,0.02,WeatherSnoop3.0,2013-04-02 07:13:00,
2013-04-02 02:18:00,36.8,31.8,30.19,ENE,75,1.0,-999.0,82,0.10,,,0.03,WeatherSnoop3.0,2013-04-02 07:18:00,
2013-04-02 02:23:00,36.4,31.4,30.19,ENE,58,6.0,-999.0,82,0.08,,,0.03,WeatherSnoop3.0,2013-04-02 07:23:00,
2013-04-02 02:28:00,36.4,31.1,30.20,ENE,77,0.0,-999.0,81,0.05,,,0.03,WeatherSnoop3.0,2013-04-02 07:28:00,
2013-04-02 02:33:00,36.2,31.5,30.21,NW,323,0.0,-999.0,83,0.00,,,0.03,WeatherSnoop3.0,2013-04-02 07:33:00,
2013-04-02 02:38:00,35.9,31.5,30.21,NE,37,3.0,-999.0,84,0.00,,,0.04,WeatherSnoop3.0,2013-04-02 07:38:00,
2013-04-02 02:43:00,35.9,31.0,30.21,ENE,63,2.0,-999.0,82,0.00,,,0.04,WeatherSnoop3.0,2013-04-02 07:43:00,
2013-04-02 02:48:00,35.8,31.2,30.21,NE,40,2.0,-999.0,83,0.00,,,0.04,WeatherSnoop3.0,2013-04-02 07:48:00,
2013-04-02 02:53:00,35.7,31.1,30.21,NE,44,2.0,-999.0,83,0.00,,,0.04,WeatherSnoop3.0,2013-04-02 07:53:00,
2013-04-02 02:58:00,35.6,30.4,30.21,NE,56,6.0,-999.0,81,0.00,,,0.04,WeatherSnoop3.0,2013-04-02 07:58:00,
2013-04-02 03:03:00,35.5,29.6,30.21,NE,54,4.0,-999.0,79,0.00,,,0.04,WeatherSnoop3.0,2013-04-02 08:03:00,
2013-04-02 03:08:00,35.4,29.5,30.21,NNE,28,2.0,-999.0,79,0.00,,,0.04,WeatherSnoop3.0,2013-04-02 08:08:00,
2013-04-02 03:13:00,35.2,29.7,30.21,NE,56,4.0,-999.0,80,0.00,,,0.04,WeatherSnoop3.0,2013-04-02 08:13:00,
2013-04-02 03:18:00,35.1,30.5,30.20,ENE,60,3.0,-999.0,83,0.00,,,0.04,WeatherSnoop3.0,2013-04-02 08:18:00,
2013-04-02 03:23:00,35.1,30.2,30.21,NNE,32,3.0,-999.0,82,0.00,,,0.04,WeatherSnoop3.0,2013-04-02 08:23:00,
2013-04-02 03:28:00,35.0,30.1,30.21,NE,55,2.0,-999.0,82,0.00,,,0.04,WeatherSnoop3.0,2013-04-02 08:28:00,
2013-04-02 03:33:00,35.0,30.4,30.21,NE,56,2.0,-999.0,83,0.00,,,0.04,WeatherSnoop3.0,2013-04-02 08:33:00,
2013-04-02 03:38:00,35.1,30.5,30.21,ENE,58,3.0,-999.0,83,0.00,,,0.04,WeatherSnoop3.0,2013-04-02 08:38:00,
2013-04-02 03:43:00,35.1,29.9,30.21,ENE,68,3.0,-999.0,81,0.00,,,0.04,WeatherSnoop3.0,2013-04-02 08:43:00,
2013-04-02 03:48:00,35.2,30.0,30.21,NE,36,6.0,-999.0,81,0.00,,,0.04,WeatherSnoop3.0,2013-04-02 08:48:00,
2013-04-02 03:53:00,35.2,29.7,30.21,ENE,74,1.0,-999.0,80,0.00,,,0.04,WeatherSnoop3.0,2013-04-02 08:53:00,
2013-04-02 03:58:00,35.2,30.6,30.21,NNE,24,2.0,-999.0,83,0.00,,,0.04,WeatherSnoop3.0,2013-04-02 08:58:00,
2013-04-02 04:03:00,35.1,29.6,30.20,ENE,75,3.0,-999.0,80,0.00,,,0.04,WeatherSnoop3.0,2013-04-02 09:03:00,
2013-04-02 04:08:00,35.1,28.9,30.20,ENE,58,2.0,-999.0,78,0.00,,,0.04,WeatherSnoop3.0,2013-04-02 09:08:00,
2013-04-02 04:13:00,35.1,28.9,30.20,ENE,61,2.0,-999.0,78,0.00,,,0.04,WeatherSnoop3.0,2013-04-02 09:13:00,
2013-04-02 04:18:00,35.1,29.3,30.20,ENE,63,5.0,-999.0,79,0.00,,,0.04,WeatherSnoop3.0,2013-04-02 09:18:00,
2013-04-02 04:23:00,35.1,28.6,30.20,ENE,68,5.0,-999.0,77,0.00,,,0.04,WeatherSnoop3.0,2013-04-02 09:23:00,
2013-04-02 04:28:00,35.0,29.2,30.19,ENE,77,1.0,-999.0,79,0.00,,,0.04,WeatherSnoop3.0,2013-04-02 09:28:00,
2013-04-02 04:33:00,35.0,29.5,30.19,ENE,57,1.0,-999.0,80,0.00,,,0.04,WeatherSnoop3.0,2013-04-02 09:33:00,
2013-04-02 04:38:00,34.9,29.4,30.19,ENE,65,2.0,-999.0,80,0.00,,,0.04,WeatherSnoop3.0,2013-04-02 09:38:00,
2013-04-02 04:43:00,34.9,29.4,30.20,ENE,65,5.0,-999.0,80,0.00,,,0.04,WeatherSnoop3.0,2013-04-02 09:43:00,
2013-04-02 04:48:00,34.8,29.3,30.20,East,88,1.0,-999.0,80,0.00,,,0.04,WeatherSnoop3.0,2013-04-02 09:48:00,
2013-04-02 04:53:00,34.7,28.6,30.19,ENE,59,4.0,-999.0,78,0.00,,,0.04,WeatherSnoop3.0,2013-04-02 09:53:00,
2013-04-02 04:58:00,34.7,28.6,30.19,ENE,68,2.0,-999.0,78,0.00,,,0.04,WeatherSnoop3.0,2013-04-02 09:58:00,
2013-04-02 05:03:00,34.6,27.8,30.19,NE,41,2.0,-999.0,76,0.00,,,0.04,WeatherSnoop3.0,2013-04-02 10:03:00,
2013-04-02 05:08:00,34.5,27.7,30.19,East,82,2.0,-999.0,76,0.00,,,0.04,WeatherSnoop3.0,2013-04-02 10:08:00,
2013-04-02 05:13:00,34.3,28.2,30.20,ENE,59,3.0,-999.0,78,0.00,,,0.04,WeatherSnoop3.0,2013-04-02 10:13:00,
2013-04-02 05:18:00,34.2,28.1,30.19,ENE,68,2.0,-999.0,78,0.00,,,0.04,WeatherSnoop3.0,2013-04-02 10:18:00,
2013-04-02 05:23:00,34.1,28.3,30.19,ENE,58,5.0,-999.0,79,0.00,,,0.04,WeatherSnoop3.0,2013-04-02 10:23:00,
2013-04-02 05:28:00,34.0,28.2,30.19,North,359,6.0,-999.0,79,0.00,,,0.04,WeatherSnoop3.0,2013-04-02 10:28:00,
2013-04-02 05:33:00,33.8,28.6,30.20,NE,47,6.0,-999.0,81,0.00,,,0.04,WeatherSnoop3.0,2013-04-02 10:33:00,
2013-04-02 05:38:00,33.7,28.8,30.19,ENE,68,1.0,-999.0,82,0.00,,,0.04,WeatherSnoop3.0,2013-04-02 10:38:00,
2013-04-02 05:43:00,33.6,28.7,30.20,ENE,70,1.0,-999.0,82,0.00,,,0.04,WeatherSnoop3.0,2013-04-02 10:43:00,
2013-04-02 05:48:00,33.7,28.8,30.20,East,81,2.0,-999.0,82,0.00,,,0.04,WeatherSnoop3.0,2013-04-02 10:48:00,
2013-04-02 05:53:00,33.7,28.5,30.20,ENE,61,2.0,-999.0,81,0.00,,,0.04,WeatherSnoop3.0,2013-04-02 10:53:00,
2013-04-02 05:58:00,33.7,28.2,30.20,NE,44,5.0,-999.0,80,0.00,,,0.04,WeatherSnoop3.0,2013-04-02 10:58:00,
2013-04-02 06:03:00,33.7,29.1,30.21,ENE,71,3.0,-999.0,83,0.00,,,0.04,WeatherSnoop3.0,2013-04-02 11:03:00,
2013-04-02 06:08:00,33.7,29.1,30.21,East,82,2.0,-999.0,83,0.00,,,0.04,WeatherSnoop3.0,2013-04-02 11:08:00,
2013-04-02 06:13:00,33.6,29.0,30.21,ENE,77,0.0,-999.0,83,0.00,,,0.04,WeatherSnoop3.0,2013-04-02 11:13:00,
2013-04-02 06:18:00,33.5,28.9,30.20,ENE,72,1.0,-999.0,83,0.00,,,0.04,WeatherSnoop3.0,2013-04-02 11:18:00,
2013-04-02 06:23:00,33.5,28.9,30.19,East,82,2.0,-999.0,83,0.00,,,0.04,WeatherSnoop3.0,2013-04-02 11:23:00,
2013-04-02 06:28:00,33.5,29.2,30.19,East,99,3.0,-999.0,84,0.00,,,0.04,WeatherSnoop3.0,2013-04-02 11:28:00,
2013-04-02 06:33:00,33.5,28.6,30.19,East,88,2.0,-999.0,82,0.00,,,0.04,WeatherSnoop3.0,2013-04-02 11:33:00,
2013-04-02 06:38:00,33.5,28.9,30.19,East,93,2.0,-999.0,83,0.00,,,0.04,WeatherSnoop3.0,2013-04-02 11:38:00,
2013-04-02 06:43:00,33.5,28.9,30.20,East,81,2.0,-999.0,83,0.00,,,0.04,WeatherSnoop3.0,2013-04-02 11:43:00,
2013-04-02 06:49:00,33.6,29.0,30.20,East,98,1.0,-999.0,83,0.00,,,0.04,WeatherSnoop3.0,2013-04-02 11:49:00,
2013-04-02 06:54:00,33.6,29.0,30.20,ENE,77,2.0,-999.0,83,0.00,,,0.04,WeatherSnoop3.0,2013-04-02 11:54:00,
2013-04-02 06:59:00,33.6,28.7,30.20,ENE,77,2.0,-999.0,82,0.00,,,0.04,WeatherSnoop3.0,2013-04-02 11:59:00,
2013-04-02 07:04:00,33.6,28.7,30.20,East,85,1.0,-999.0,82,0.00,,,0.04,WeatherSnoop3.0,2013-04-02 12:04:00,
2013-04-02 07:09:00,33.7,28.8,30.20,ENE,71,1.0,-999.0,82,0.00,,,0.04,WeatherSnoop3.0,2013-04-02 12:09:00,
2013-04-02 07:14:00,33.7,29.1,30.21,East,92,2.0,-999.0,83,0.00,,,0.04,WeatherSnoop3.0,2013-04-02 12:14:00,
2013-04-02 07:19:00,33.7,29.1,30.22,East,85,1.0,-999.0,83,0.00,,,0.04,WeatherSnoop3.0,2013-04-02 12:19:00,
2013-04-02 07:24:00,33.7,28.8,30.22,East,82,1.0,-999.0,82,0.00,,,0.04,WeatherSnoop3.0,2013-04-02 12:24:00,
2013-04-02 07:29:00,33.7,28.8,30.22,ENE,72,2.0,-999.0,82,0.00,,,0.04,WeatherSnoop3.0,2013-04-02 12:29:00,
2013-04-02 07:34:00,33.8,28.9,30.22,ENE,70,3.0,-999.0,82,0.00,,,0.04,WeatherSnoop3.0,2013-04-02 12:34:00,
2013-04-02 07:39:00,33.8,28.6,30.21,East,91,2.0,-999.0,81,0.00,,,0.04,WeatherSnoop3.0,2013-04-02 12:39:00,
2013-04-02 07:44:00,33.7,28.8,30.21,NE,49,1.0,-999.0,82,0.00,,,0.04,WeatherSnoop3.0,2013-04-02 12:44:00,
2013-04-02 07:49:00,33.7,28.8,30.21,East,88,2.0,-999.0,82,0.00,,,0.04,WeatherSnoop3.0,2013-04-02 12:49:00,
2013-04-02 07:54:00,33.7,28.2,30.21,East,82,3.0,-999.0,80,0.00,,,0.04,WeatherSnoop3.0,2013-04-02 12:54:00,
2013-04-02 07:59:00,33.7,28.8,30.22,ENE,57,4.0,-999.0,82,0.00,,,0.04,WeatherSnoop3.0,2013-04-02 12:59:00,
2013-04-02 08:04:00,33.7,28.5,30.22,NE,40,3.0,-999.0,81,0.00,,,0.04,WeatherSnoop3.0,2013-04-02 13:04:00,
2013-04-02 08:09:00,33.6,28.7,30.21,ENE,75,2.0,-999.0,82,0.00,,,0.04,WeatherSnoop3.0,2013-04-02 13:09:00,
2013-04-02 08:14:00,33.5,28.9,30.20,ENE,60,1.0,-999.0,83,0.00,,,0.04,WeatherSnoop3.0,2013-04-02 13:14:00,
2013-04-02 08:19:00,33.5,29.2,30.21,ENE,57,6.0,-999.0,84,0.00,,,0.05,WeatherSnoop3.0,2013-04-02 13:19:00,
2013-04-02 08:24:00,33.4,29.1,30.22,ENE,77,5.0,-999.0,84,0.00,,,0.05,WeatherSnoop3.0,2013-04-02 13:24:00,
2013-04-02 08:29:00,33.3,29.0,30.22,ENE,65,5.0,-999.0,84,0.00,,,0.05,WeatherSnoop3.0,2013-04-02 13:29:00,
2013-04-02 08:34:00,33.3,28.7,30.22,NE,36,3.0,-999.0,83,0.00,,,0.05,WeatherSnoop3.0,2013-04-02 13:34:00,
2013-04-02 08:39:00,33.3,28.7,30.22,NE,51,2.0,-999.0,83,0.00,,,0.05,WeatherSnoop3.0,2013-04-02 13:39:00,
2013-04-02 08:44:00,33.2,28.6,30.21,NE,49,2.0,-999.0,83,0.00,,,0.05,WeatherSnoop3.0,2013-04-02 13:44:00,
2013-04-02 08:49:00,33.2,28.6,30.22,East,92,3.0,-999.0,83,0.00,,,0.05,WeatherSnoop3.0,2013-04-02 13:49:00,
2013-04-02 08:54:00,33.2,28.9,30.22,NE,51,3.0,-999.0,84,0.00,,,0.05,WeatherSnoop3.0,2013-04-02 13:54:00,
2013-04-02 08:59:00,33.0,29.0,30.21,ENE,71,6.0,-999.0,85,0.00,,,0.05,WeatherSnoop3.0,2013-04-02 13:59:00,
2013-04-02 09:04:00,32.9,29.2,30.22,ENE,57,4.0,-999.0,86,0.00,,,0.05,WeatherSnoop3.0,2013-04-02 14:04:00,
2013-04-02 09:09:00,32.8,29.1,30.22,East,101,2.0,-999.0,86,0.00,,,0.05,WeatherSnoop3.0,2013-04-02 14:09:00,
2013-04-02 09:14:00,32.7,28.7,30.21,NE,48,2.0,-999.0,85,0.00,,,0.05,WeatherSnoop3.0,2013-04-02 14:14:00,
2013-04-02 09:19:00,32.7,29.0,30.21,ENE,68,0.0,-999.0,86,0.00,,,0.05,WeatherSnoop3.0,2013-04-02 14:19:00,
2013-04-02 09:24:00,32.6,29.2,30.22,NE,47,3.0,-999.0,87,0.00,,,0.05,WeatherSnoop3.0,2013-04-02 14:24:00,
2013-04-02 09:29:00,32.6,28.9,30.22,ENE,65,5.0,-999.0,86,0.00,,,0.05,WeatherSnoop3.0,2013-04-02 14:29:00,
2013-04-02 09:34:00,32.5,28.5,30.22,ENE,68,3.0,-999.0,85,0.00,,,0.05,WeatherSnoop3.0,2013-04-02 14:34:00,
2013-04-02 09:39:00,32.5,28.5,30.22,NE,56,2.0,-999.0,85,0.00,,,0.05,WeatherSnoop3.0,2013-04-02 14:39:00,
2013-04-02 09:44:00,32.5,28.8,30.22,NE,54,3.0,-999.0,86,0.00,,,0.05,WeatherSnoop3.0,2013-04-02 14:44:00,
2013-04-02 09:49:00,32.5,28.8,30.23,ENE,63,0.0,-999.0,86,0.00,,,0.05,WeatherSnoop3.0,2013-04-02 14:49:00,
2013-04-02 09:54:00,32.5,29.1,30.23,East,96,0.0,-999.0,87,0.00,,,0.05,WeatherSnoop3.0,2013-04-02 14:54:00,
2013-04-02 09:59:00,32.5,29.1,30.22,ENE,57,2.0,-999.0,87,0.00,,,0.05,WeatherSnoop3.0,2013-04-02 14:59:00,
2013-04-02 10:04:00,32.5,29.1,30.21,NE,46,2.0,-999.0,87,0.00,,,0.05,WeatherSnoop3.0,2013-04-02 15:04:00,
2013-04-02 10:09:00,32.6,29.2,30.22,East,89,2.0,-999.0,87,0.00,,,0.05,WeatherSnoop3.0,2013-04-02 15:09:00,
2013-04-02 10:14:00,32.7,29.3,30.23,ENE,59,1.0,-999.0,87,0.00,,,0.05,WeatherSnoop3.0,2013-04-02 15:14:00,
2013-04-02 10:19:00,32.7,29.3,30.22,ENE,71,1.0,-999.0,87,0.00,,,0.05,WeatherSnoop3.0,2013-04-02 15:19:00,
2013-04-02 10:24:00,32.8,29.6,30.22,East,93,1.0,-999.0,88,0.00,,,0.05,WeatherSnoop3.0,2013-04-02 15:24:00,
2013-04-02 10:29:00,32.9,29.5,30.22,ENE,78,2.0,-999.0,87,0.00,,,0.05,WeatherSnoop3.0,2013-04-02 15:29:00,
2013-04-02 10:34:00,33.1,29.7,30.22,ENE,59,3.0,-999.0,87,0.00,,,0.05,WeatherSnoop3.0,2013-04-02 15:34:00,
2013-04-02 10:39:00,33.3,29.9,30.23,East,84,1.0,-999.0,87,0.00,,,0.05,WeatherSnoop3.0,2013-04-02 15:39:00,
2013-04-02 10:45:00,33.7,30.0,30.23,ENE,61,5.0,-999.0,86,0.00,,,0.05,WeatherSnoop3.0,2013-04-02 15:45:00,
2013-04-02 10:50:00,34.0,29.4,30.23,East,91,3.0,-999.0,83,0.00,,,0.05,WeatherSnoop3.0,2013-04-02 15:50:00,
2013-04-02 10:58:00,34.3,30.0,30.23,NE,55,2.0,-999.0,84,0.00,,,0.06,WeatherSnoop3.0,2013-04-02 15:58:00,
2013-04-02 11:03:00,34.4,29.8,30.24,East,88,2.0,-999.0,83,0.00,,,0.06,WeatherSnoop3.0,2013-04-02 16:03:00,
2013-04-02 11:08:00,34.5,29.3,30.24,NE,40,3.0,-999.0,81,0.00,,,0.06,WeatherSnoop3.0,2013-04-02 16:08:00,
2013-04-02 11:13:00,34.5,29.3,30.24,East,84,2.0,-999.0,81,0.00,,,0.06,WeatherSnoop3.0,2013-04-02 16:13:00,
2013-04-02 11:18:00,34.6,29.4,30.24,ESE,102,2.0,-999.0,81,0.00,,,0.06,WeatherSnoop3.0,2013-04-02 16:18:00,
2013-04-02 11:23:00,34.7,29.5,30.24,NE,36,3.0,-999.0,81,0.00,,,0.06,WeatherSnoop3.0,2013-04-02 16:23:00,
2013-04-02 11:29:00,34.8,29.6,30.24,East,87,1.0,-999.0,81,0.00,,,0.06,WeatherSnoop3.0,2013-04-02 16:29:00,
2013-04-02 11:34:00,35.0,29.5,30.24,East,83,0.0,-999.0,80,0.00,,,0.06,WeatherSnoop3.0,2013-04-02 16:34:00,
2013-04-02 11:39:00,35.1,28.9,30.24,ENE,61,1.0,-999.0,78,0.00,,,0.07,WeatherSnoop3.0,2013-04-02 16:39:00,
2013-04-02 11:45:00,35.2,28.7,30.24,East,88,3.0,-999.0,77,0.00,,,0.07,WeatherSnoop3.0,2013-04-02 16:45:00,
2013-04-02 11:50:00,35.3,29.5,30.23,East,93,1.0,-999.0,79,0.00,,,0.07,WeatherSnoop3.0,2013-04-02 16:50:00,
2013-04-02 11:55:00,35.3,29.5,30.24,NE,51,4.0,-999.0,79,0.00,,,0.07,WeatherSnoop3.0,2013-04-02 16:55:00,
2013-04-02 12:00:00,35.4,29.5,30.24,NE,50,2.0,-999.0,79,0.00,,,0.07,WeatherSnoop3.0,2013-04-02 17:00:00,
2013-04-02 12:05:00,35.5,30.0,30.25,NE,52,2.0,-999.0,80,0.00,,,0.07,WeatherSnoop3.0,2013-04-02 17:05:00,
2013-04-02 12:10:00,35.6,29.7,30.25,ENE,58,2.0,-999.0,79,0.00,,,0.07,WeatherSnoop3.0,2013-04-02 17:10:00,
2013-04-02 12:15:00,35.7,29.8,30.25,ENE,57,5.0,-999.0,79,0.00,,,0.07,WeatherSnoop3.0,2013-04-02 17:15:00,
2013-04-02 12:20:00,35.8,29.6,30.25,ENE,65,2.0,-999.0,78,0.00,,,0.07,WeatherSnoop3.0,2013-04-02 17:20:00,
2013-04-02 12:25:00,36.0,29.5,30.25,East,90,0.0,-999.0,77,0.00,,,0.07,WeatherSnoop3.0,2013-04-02 17:25:00,
2013-04-02 12:30:00,36.3,29.8,30.25,NE,51,2.0,-999.0,77,0.00,,,0.08,WeatherSnoop3.0,2013-04-02 17:30:00,
2013-04-02 12:35:00,36.5,30.9,30.25,NE,49,5.0,-999.0,80,0.00,,,0.08,WeatherSnoop3.0,2013-04-02 17:35:00,
2013-04-02 12:40:00,36.4,29.2,30.24,ENE,59,3.0,-999.0,75,0.00,,,0.08,WeatherSnoop3.0,2013-04-02 17:40:00,
2013-04-02 12:45:00,36.3,29.1,30.24,NNE,23,5.0,-999.0,75,0.00,,,0.08,WeatherSnoop3.0,2013-04-02 17:45:00,
2013-04-02 12:50:00,36.4,29.2,30.24,East,82,2.0,-999.0,75,0.00,,,0.08,WeatherSnoop3.0,2013-04-02 17:50:00,
2013-04-02 12:55:00,36.5,30.0,30.25,ENE,58,2.0,-999.0,77,0.00,,,0.08,WeatherSnoop3.0,2013-04-02 17:55:00,
2013-04-02 13:01:00,36.5,28.7,30.24,ENE,57,3.0,-999.0,73,0.00,,,0.08,WeatherSnoop3.0,2013-04-02 18:01:00,
2013-04-02 13:06:00,36.6,29.1,30.24,NE,50,3.0,-999.0,74,0.00,,,0.08,WeatherSnoop3.0,2013-04-02 18:06:00,
2013-04-02 13:11:00,36.8,28.6,30.24,East,89,3.0,-999.0,72,0.00,,,0.08,WeatherSnoop3.0,2013-04-02 18:11:00,
2013-04-02 13:16:00,36.9,29.7,30.24,East,89,1.0,-999.0,75,0.00,,,0.08,WeatherSnoop3.0,2013-04-02 18:16:00,
2013-04-02 13:21:00,37.0,29.5,30.24,ENE,58,5.0,-999.0,74,0.00,,,0.08,WeatherSnoop3.0,2013-04-02 18:21:00,
2013-04-02 13:26:00,37.2,29.4,30.24,ENE,77,4.0,-999.0,73,0.00,,,0.09,WeatherSnoop3.0,2013-04-02 18:26:00,
2013-04-02 13:31:00,37.3,29.5,30.23,ENE,77,1.0,-999.0,73,0.00,,,0.09,WeatherSnoop3.0,2013-04-02 18:31:00,
2013-04-02 13:36:00,37.5,30.0,30.23,ENE,60,6.0,-999.0,74,0.00,,,0.09,WeatherSnoop3.0,2013-04-02 18:36:00,
2013-04-02 13:41:00,37.4,29.2,30.23,ENE,77,0.0,-999.0,72,0.00,,,0.09,WeatherSnoop3.0,2013-04-02 18:41:00,
2013-04-02 13:47:00,37.5,29.0,30.23,East,79,3.0,-999.0,71,0.00,,,0.09,WeatherSnoop3.0,2013-04-02 18:47:00,
2013-04-02 13:52:00,37.6,29.4,30.22,ENE,58,2.0,-999.0,72,0.00,,,0.09,WeatherSnoop3.0,2013-04-02 18:52:00,
2013-04-02 13:57:00,37.6,28.0,30.22,East,84,1.0,-999.0,68,0.00,,,0.09,WeatherSnoop3.0,2013-04-02 18:57:00,
2013-04-02 14:02:00,37.7,29.2,30.22,ENE,65,2.0,-999.0,71,0.00,,,0.09,WeatherSnoop3.0,2013-04-02 19:02:00,
2013-04-02 14:07:00,37.9,29.4,30.22,ENE,65,2.0,-999.0,71,0.00,,,0.10,WeatherSnoop3.0,2013-04-02 19:07:00,
2013-04-02 14:12:00,38.1,28.8,30.22,ENE,64,1.0,-999.0,69,0.00,,,0.10,WeatherSnoop3.0,2013-04-02 19:12:00,
2013-04-02 14:17:00,38.3,29.0,30.22,East,82,1.0,-999.0,69,0.00,,,0.10,WeatherSnoop3.0,2013-04-02 19:17:00,
2013-04-02 14:22:00,38.4,28.8,30.22,ENE,59,2.0,-999.0,68,0.00,,,0.10,WeatherSnoop3.0,2013-04-02 19:22:00,
2013-04-02 14:27:00,38.4,28.8,30.22,ENE,68,3.0,-999.0,68,0.00,,,0.10,WeatherSnoop3.0,2013-04-02 19:27:00,
2013-04-02 14:32:00,38.5,28.9,30.22,East,96,3.0,-999.0,68,0.00,,,0.10,WeatherSnoop3.0,2013-04-02 19:32:00,
2013-04-02 14:38:00,38.7,28.7,30.22,ENE,75,2.0,-999.0,67,0.00,,,0.10,WeatherSnoop3.0,2013-04-02 19:38:00,
2013-04-02 14:43:00,38.7,29.1,30.21,East,79,2.0,-999.0,68,0.00,,,0.10,WeatherSnoop3.0,2013-04-02 19:43:00,
2013-04-02 14:48:00,38.7,28.7,30.20,ENE,65,2.0,-999.0,67,0.00,,,0.10,WeatherSnoop3.0,2013-04-02 19:48:00,
2013-04-02 14:53:00,38.7,28.7,30.20,ENE,65,2.0,-999.0,67,0.00,,,0.10,WeatherSnoop3.0,2013-04-02 19:53:00,
2013-04-02 14:59:00,38.8,28.4,30.20,ENE,74,2.0,-999.0,66,0.00,,,0.11,WeatherSnoop3.0,2013-04-02 19:59:00,
2013-04-02 15:04:00,38.9,27.4,30.20,ENE,74,3.0,-999.0,63,0.00,,,0.11,WeatherSnoop3.0,2013-04-02 20:04:00,
2013-04-02 15:09:00,39.1,28.3,30.20,NE,47,5.0,-999.0,65,0.00,,,0.11,WeatherSnoop3.0,2013-04-02 20:09:00,
2013-04-02 15:14:00,39.3,28.2,30.19,NE,44,2.0,-999.0,64,0.00,,,0.11,WeatherSnoop3.0,2013-04-02 20:14:00,
2013-04-02 15:19:00,39.5,29.1,30.19,NE,47,4.0,-999.0,66,0.00,,,0.11,WeatherSnoop3.0,2013-04-02 20:19:00,
2013-04-02 15:27:00,40.0,29.2,30.19,NNE,32,5.0,-999.0,65,0.00,,,0.11,WeatherSnoop3.0,2013-04-02 20:27:00,
2013-04-02 15:32:00,39.9,27.6,30.18,ENE,63,6.0,-999.0,61,0.00,,,0.11,WeatherSnoop3.0,2013-04-02 20:32:00,
2013-04-02 15:37:00,39.7,27.8,30.18,ENE,63,6.0,-999.0,62,0.00,,,0.11,WeatherSnoop3.0,2013-04-02 20:37:00,
2013-04-02 15:42:00,39.6,28.4,30.18,NE,47,4.0,-999.0,64,0.00,,,0.11,WeatherSnoop3.0,2013-04-02 20:42:00,
2013-04-02 15:47:00,39.5,28.3,30.18,ENE,77,4.0,-999.0,64,0.00,,,0.11,WeatherSnoop3.0,2013-04-02 20:47:00,
2013-04-02 15:52:00,39.6,27.7,30.18,ENE,74,3.0,-999.0,62,0.00,,,0.11,WeatherSnoop3.0,2013-04-02 20:52:00,
2013-04-02 15:58:00,39.7,27.8,30.18,East,96,6.0,-999.0,62,0.00,,,0.11,WeatherSnoop3.0,2013-04-02 20:58:00,
2013-04-02 16:03:00,39.8,27.9,30.18,ENE,74,4.0,-999.0,62,0.00,,,0.11,WeatherSnoop3.0,2013-04-02 21:03:00,
2013-04-02 16:08:00,40.0,28.0,30.18,ENE,70,2.0,-999.0,62,0.00,,,0.11,WeatherSnoop3.0,2013-04-02 21:08:00,
2013-04-02 16:13:00,40.2,28.2,30.18,East,94,3.0,-999.0,62,0.00,,,0.11,WeatherSnoop3.0,2013-04-02 21:13:00,
2013-04-02 16:18:00,40.3,28.7,30.17,NE,51,2.0,-999.0,63,0.00,,,0.11,WeatherSnoop3.0,2013-04-02 21:18:00,
2013-04-02 16:23:00,40.4,27.6,30.17,East,90,4.0,-999.0,60,0.00,,,0.11,WeatherSnoop3.0,2013-04-02 21:23:00,
2013-04-02 16:28:00,40.4,28.0,30.17,East,84,1.0,-999.0,61,0.00,,,0.11,WeatherSnoop3.0,2013-04-02 21:28:00,
2013-04-02 16:33:00,40.5,28.5,30.17,East,89,4.0,-999.0,62,0.00,,,0.11,WeatherSnoop3.0,2013-04-02 21:33:00,
2013-04-02 16:39:00,40.6,28.2,30.17,ENE,78,2.0,-999.0,61,0.00,,,0.11,WeatherSnoop3.0,2013-04-02 21:39:00,
2013-04-02 16:44:00,40.6,27.4,30.17,ENE,75,3.0,-999.0,59,0.00,,,0.11,WeatherSnoop3.0,2013-04-02 21:44:00,
2013-04-02 16:49:00,40.6,28.6,30.17,East,96,2.0,-999.0,62,0.00,,,0.11,WeatherSnoop3.0,2013-04-02 21:49:00,
2013-04-02 16:54:00,40.7,28.3,30.17,ENE,75,2.0,-999.0,61,0.00,,,0.11,WeatherSnoop3.0,2013-04-02 21:54:00,
2013-04-02 17:00:00,40.7,28.7,30.17,ENE,74,1.0,-999.0,62,0.00,,,0.11,WeatherSnoop3.0,2013-04-02 22:00:00,
2013-04-02 17:05:00,40.7,29.1,30.17,East,92,1.0,-999.0,63,0.00,,,0.11,WeatherSnoop3.0,2013-04-02 22:05:00,
2013-04-02 17:10:00,40.8,27.6,30.17,ENE,60,3.0,-999.0,59,0.00,,,0.11,WeatherSnoop3.0,2013-04-02 22:10:00,
2013-04-02 17:15:00,40.9,27.7,30.17,ENE,75,5.0,-999.0,59,0.00,,,0.11,WeatherSnoop3.0,2013-04-02 22:15:00,
2013-04-02 17:20:00,40.9,27.7,30.17,ENE,68,3.0,-999.0,59,0.00,,,0.11,WeatherSnoop3.0,2013-04-02 22:20:00,
2013-04-02 17:25:00,40.8,27.6,30.17,ENE,61,8.0,-999.0,59,0.00,,,0.11,WeatherSnoop3.0,2013-04-02 22:25:00,
2013-04-02 17:30:00,40.7,26.7,30.17,NE,54,2.0,-999.0,57,0.00,,,0.11,WeatherSnoop3.0,2013-04-02 22:30:00,
2013-04-02 17:35:00,40.7,26.7,30.17,NE,43,5.0,-999.0,57,0.00,,,0.11,WeatherSnoop3.0,2013-04-02 22:35:00,
2013-04-02 17:41:00,40.6,27.0,30.17,ENE,59,3.0,-999.0,58,0.00,,,0.11,WeatherSnoop3.0,2013-04-02 22:41:00,
2013-04-02 17:46:00,40.6,27.0,30.17,East,93,3.0,-999.0,58,0.00,,,0.11,WeatherSnoop3.0,2013-04-02 22:46:00,
2013-04-02 17:51:00,40.6,26.6,30.17,East,85,5.0,-999.0,57,0.00,,,0.11,WeatherSnoop3.0,2013-04-02 22:51:00,
2013-04-02 17:56:00,40.6,27.4,30.18,ENE,68,2.0,-999.0,59,0.00,,,0.11,WeatherSnoop3.0,2013-04-02 22:56:00,
2013-04-02 18:01:00,40.6,27.8,30.17,East,79,3.0,-999.0,60,0.00,,,0.11,WeatherSnoop3.0,2013-04-02 23:01:00,
2013-04-02 18:06:00,40.7,26.7,30.17,East,89,3.0,-999.0,57,0.00,,,0.11,WeatherSnoop3.0,2013-04-02 23:06:00,
2013-04-02 18:11:00,40.8,27.2,30.17,ENE,58,6.0,-999.0,58,0.00,,,0.11,WeatherSnoop3.0,2013-04-02 23:11:00,
2013-04-02 18:16:00,41.0,27.4,30.17,ENE,63,2.0,-999.0,58,0.00,,,0.11,WeatherSnoop3.0,2013-04-02 23:16:00,
2013-04-02 18:21:00,41.2,28.0,30.17,East,90,3.0,-999.0,59,0.00,,,0.11,WeatherSnoop3.0,2013-04-02 23:21:00,
2013-04-02 18:26:00,41.3,27.2,30.17,East,91,2.0,-999.0,57,0.00,,,0.11,WeatherSnoop3.0,2013-04-02 23:26:00,
2013-04-02 18:31:00,41.4,28.2,30.17,East,95,1.0,-999.0,59,0.00,,,0.11,WeatherSnoop3.0,2013-04-02 23:31:00,
2013-04-02 18:36:00,41.5,27.8,30.17,East,96,3.0,-999.0,58,0.00,,,0.11,WeatherSnoop3.0,2013-04-02 23:36:00,
2013-04-02 18:42:00,41.4,27.7,30.17,ESE,108,2.0,-999.0,58,0.00,,,0.11,WeatherSnoop3.0,2013-04-02 23:42:00,
2013-04-02 18:47:00,41.3,27.7,30.17,East,93,1.0,-999.0,58,0.00,,,0.11,WeatherSnoop3.0,2013-04-02 23:47:00,
2013-04-02 18:52:00,41.3,27.7,30.17,ENE,65,2.0,-999.0,58,0.00,,,0.11,WeatherSnoop3.0,2013-04-02 23:52:00,
2013-04-02 18:58:00,41.2,30.0,30.17,ESE,113,0.0,-999.0,64,0.00,,,0.11,WeatherSnoop3.0,2013-04-02 23:58:00,
2013-04-02 19:03:00,40.9,28.9,30.17,East,99,3.0,-999.0,62,0.00,,,0.11,WeatherSnoop3.0,2013-04-03 00:03:00,
2013-04-02 19:08:00,40.7,28.7,30.17,East,92,3.0,-999.0,62,0.00,,,0.11,WeatherSnoop3.0,2013-04-03 00:08:00,
2013-04-02 19:13:00,40.6,28.6,30.17,East,94,2.0,-999.0,62,0.00,,,0.11,WeatherSnoop3.0,2013-04-03 00:13:00,
2013-04-02 19:18:00,40.5,28.1,30.17,East,86,1.0,-999.0,61,0.00,,,0.11,WeatherSnoop3.0,2013-04-03 00:18:00,
2013-04-02 19:23:00,40.5,28.9,30.17,ESE,103,0.0,-999.0,63,0.00,,,0.11,WeatherSnoop3.0,2013-04-03 00:23:00,
2013-04-02 19:29:00,40.3,29.1,30.17,ESE,103,1.0,-999.0,64,0.00,,,0.11,WeatherSnoop3.0,2013-04-03 00:29:00,
2013-04-02 19:34:00,40.2,29.0,30.17,East,86,2.0,-999.0,64,0.00,,,0.11,WeatherSnoop3.0,2013-04-03 00:34:00,
2013-04-02 19:39:00,40.1,29.7,30.17,East,87,2.0,-999.0,66,0.00,,,0.11,WeatherSnoop3.0,2013-04-03 00:39:00,
2013-04-02 19:44:00,40.0,28.8,30.17,East,93,3.0,-999.0,64,0.00,,,0.11,WeatherSnoop3.0,2013-04-03 00:44:00,
2013-04-02 19:50:00,39.9,29.1,30.17,SSE,162,0.0,-999.0,65,0.00,,,0.11,WeatherSnoop3.0,2013-04-03 00:50:00,
2013-04-02 19:55:00,39.8,29.0,30.17,East,96,1.0,-999.0,65,0.00,,,0.11,WeatherSnoop3.0,2013-04-03 00:55:00,
2013-04-02 20:00:00,39.8,29.4,30.17,East,95,2.0,-999.0,66,0.00,,,0.11,WeatherSnoop3.0,2013-04-03 01:00:00,
2013-04-02 20:05:00,39.8,29.8,30.17,East,92,1.0,-999.0,67,0.00,,,0.11,WeatherSnoop3.0,2013-04-03 01:05:00,
2013-04-02 20:10:00,39.7,30.4,30.17,ESE,103,0.0,-999.0,69,0.00,,,0.11,WeatherSnoop3.0,2013-04-03 01:10:00,
2013-04-02 20:15:00,39.6,30.3,30.17,ESE,108,0.0,-999.0,69,0.00,,,0.11,WeatherSnoop3.0,2013-04-03 01:15:00,
2013-04-02 20:20:00,39.6,29.6,30.17,East,88,0.0,-999.0,67,0.00,,,0.11,WeatherSnoop3.0,2013-04-03 01:20:00,
2013-04-02 20:25:00,39.6,29.9,30.17,East,94,0.0,-999.0,68,0.00,,,0.11,WeatherSnoop3.0,2013-04-03 01:25:00,
2013-04-02 20:30:00,39.6,29.6,30.17,East,93,0.0,-999.0,67,0.00,,,0.11,WeatherSnoop3.0,2013-04-03 01:30:00,
2013-04-02 20:35:00,39.5,29.5,30.17,SE,127,1.0,-999.0,67,0.00,,,0.11,WeatherSnoop3.0,2013-04-03 01:35:00,
2013-04-02 20:40:00,39.5,29.5,30.17,East,94,0.0,-999.0,67,0.00,,,0.11,WeatherSnoop3.0,2013-04-03 01:40:00,
2013-04-02 20:45:00,39.5,29.8,30.17,NE,56,0.0,-999.0,68,0.00,,,0.11,WeatherSnoop3.0,2013-04-03 01:45:00,
2013-04-02 20:50:00,39.5,29.5,30.17,ENE,75,0.0,-999.0,67,0.00,,,0.11,WeatherSnoop3.0,2013-04-03 01:50:00,
2013-04-02 20:55:00,39.5,28.7,30.17,East,81,1.0,-999.0,65,0.00,,,0.11,WeatherSnoop3.0,2013-04-03 01:55:00,
2013-04-02 21:00:00,39.5,28.0,30.17,East,83,0.0,-999.0,63,0.00,,,0.11,WeatherSnoop3.0,2013-04-03 02:00:00,
2013-04-02 21:05:00,39.5,28.3,30.17,East,84,0.0,-999.0,64,0.00,,,0.11,WeatherSnoop3.0,2013-04-03 02:05:00,
2013-04-02 21:10:00,39.5,29.1,30.17,East,81,0.0,-999.0,66,0.00,,,0.11,WeatherSnoop3.0,2013-04-03 02:10:00,
2013-04-02 21:15:00,39.4,29.7,30.17,East,86,0.0,-999.0,68,0.00,,,0.11,WeatherSnoop3.0,2013-04-03 02:15:00,
2013-04-02 21:20:00,39.4,29.4,30.17,East,90,0.0,-999.0,67,0.00,,,0.11,WeatherSnoop3.0,2013-04-03 02:20:00,
2013-04-02 21:25:00,39.3,29.6,30.17,ENE,65,0.0,-999.0,68,0.00,,,0.11,WeatherSnoop3.0,2013-04-03 02:25:00,
2013-04-02 21:30:00,39.3,28.5,30.17,NE,43,1.0,-999.0,65,0.00,,,0.11,WeatherSnoop3.0,2013-04-03 02:30:00,
2013-04-02 21:34:00,39.3,29.6,30.18,East,88,0.0,-999.0,68,0.00,,,0.11,WeatherSnoop3.0,2013-04-03 02:34:00,
2013-04-02 21:39:00,39.3,29.6,30.18,East,88,0.0,-999.0,68,0.00,,,0.11,WeatherSnoop3.0,2013-04-03 02:39:00,
2013-04-02 21:44:00,39.3,29.6,30.18,East,91,1.0,-999.0,68,0.00,,,0.11,WeatherSnoop3.0,2013-04-03 02:44:00,
2013-04-02 21:50:00,39.2,29.5,30.18,ESE,103,1.0,-999.0,68,0.00,,,0.11,WeatherSnoop3.0,2013-04-03 02:50:00,
2013-04-02 21:55:00,39.3,28.9,30.18,East,88,1.0,-999.0,66,0.00,,,0.11,WeatherSnoop3.0,2013-04-03 02:55:00,
2013-04-02 22:00:00,39.3,29.3,30.18,East,94,1.0,-999.0,67,0.00,,,0.11,WeatherSnoop3.0,2013-04-03 03:00:00,
2013-04-02 22:05:00,39.2,29.2,30.18,East,93,1.0,-999.0,67,0.00,,,0.11,WeatherSnoop3.0,2013-04-03 03:05:00,
2013-04-02 22:13:00,39.1,29.4,30.18,East,96,0.0,-999.0,68,0.00,,,0.11,WeatherSnoop3.0,2013-04-03 03:13:00,
2013-04-02 22:18:00,39.0,29.7,30.18,East,81,1.0,-999.0,69,0.00,,,0.11,WeatherSnoop3.0,2013-04-03 03:18:00,
2013-04-02 22:23:00,38.9,29.6,30.19,East,92,0.0,-999.0,69,0.00,,,0.11,WeatherSnoop3.0,2013-04-03 03:23:00,
2013-04-02 22:28:00,38.8,28.8,30.19,NE,56,0.0,-999.0,67,0.00,,,0.11,WeatherSnoop3.0,2013-04-03 03:28:00,
2013-04-02 22:33:00,38.8,29.2,30.19,East,87,1.0,-999.0,68,0.00,,,0.11,WeatherSnoop3.0,2013-04-03 03:33:00,
2013-04-02 22:38:00,38.7,28.7,30.19,East,92,0.0,-999.0,67,0.00,,,0.11,WeatherSnoop3.0,2013-04-03 03:38:00,
2013-04-02 22:43:00,38.6,29.0,30.19,East,91,0.0,-999.0,68,0.00,,,0.11,WeatherSnoop3.0,2013-04-03 03:43:00,
2013-04-02 22:48:00,38.5,28.9,30.19,East,89,1.0,-999.0,68,0.00,,,0.11,WeatherSnoop3.0,2013-04-03 03:48:00,
2013-04-02 22:54:00,38.5,29.2,30.20,East,89,0.0,-999.0,69,0.00,,,0.11,WeatherSnoop3.0,2013-04-03 03:54:00,
2013-04-02 22:59:00,38.5,29.6,30.21,East,89,0.0,-999.0,70,0.00,,,0.11,WeatherSnoop3.0,2013-04-03 03:59:00,
2013-04-02 23:00:00,38.5,29.2,30.21,East,90,0.0,-999.0,69,0.00,,,0.11,WeatherSnoop3.0,2013-04-03 04:00:00,
2013-04-02 23:02:00,38.5,29.2,30.21,SE,139,1.0,-999.0,69,0.00,,,0.11,WeatherSnoop3.0,2013-04-03 04:02:00,
2013-04-02 23:07:00,38.5,29.2,30.22,SE,143,0.0,-999.0,69,0.00,,,0.11,WeatherSnoop3.0,2013-04-03 04:07:00,
2013-04-02 23:13:00,38.5,29.6,30.22,ESE,121,0.0,-999.0,70,0.00,,,0.11,WeatherSnoop3.0,2013-04-03 04:13:00,
2013-04-02 23:19:00,38.6,30.0,30.21,East,97,0.0,-999.0,71,0.00,,,0.11,WeatherSnoop3.0,2013-04-03 04:19:00,
2013-04-02 23:23:00,38.6,30.0,30.22,East,97,0.0,-999.0,71,0.00,,,0.11,WeatherSnoop3.0,2013-04-03 04:23:00,
2013-04-02 23:28:00,38.6,30.4,30.22,NE,51,1.0,-999.0,72,0.00,,,0.11,WeatherSnoop3.0,2013-04-03 04:28:00,
2013-04-02 23:33:00,38.5,30.3,30.22,NE,54,0.0,-999.0,72,0.00,,,0.11,WeatherSnoop3.0,2013-04-03 04:33:00,
2013-04-02 23:35:00,38.5,30.3,30.22,ENE,60,0.0,-999.0,72,0.00,,,0.11,WeatherSnoop3.0,2013-04-03 04:35:00,
2013-04-02 23:40:00,38.4,29.5,30.22,ENE,63,0.0,-999.0,70,0.00,,,0.11,WeatherSnoop3.0,2013-04-03 04:40:00,
2013-04-02 23:45:00,38.5,29.6,30.21,East,92,1.0,-999.0,70,0.00,,,0.11,WeatherSnoop3.0,2013-04-03 04:45:00,
2013-04-02 23:50:00,38.5,29.6,30.21,NE,55,0.0,-999.0,70,0.00,,,0.11,WeatherSnoop3.0,2013-04-03 04:50:00,
2013-04-02 23:55:00,38.4,29.8,30.20,ENE,63,3.0,-999.0,71,0.00,,,0.11,WeatherSnoop3.0,2013-04-03 04:55:00,